sensor_id;sensor_type;location;lat;lon;timestamp;pressure;altitude;pressure_sealevel;temperature;humidity
53900;BME280;40509;32.858;-116.858;2023-07-31T00:00:14;97642.03;;;29.47;44.58
53900;BME280;40509;32.858;-116.858;2023-07-31T00:02:41;97642.59;;;29.49;44.66
53900;BME280;40509;32.858;-116.858;2023-07-31T00:05:08;97640.78;;;29.49;44.78
53900;BME280;40509;32.858;-116.858;2023-07-31T00:07:35;97643.44;;;29.49;44.69
53900;BME280;40509;32.858;-116.858;2023-07-31T00:10:02;97642.59;;;29.49;44.70
53900;BME280;40509;32.858;-116.858;2023-07-31T00:12:29;97635.63;;;29.54;44.72
53900;BME280;40509;32.858;-116.858;2023-07-31T00:14:56;97632.38;;;29.52;44.75
53900;BME280;40509;32.858;-116.858;2023-07-31T00:17:23;97631.53;;;29.52;44.72
53900;BME280;40509;32.858;-116.858;2023-07-31T00:19:50;97627.66;;;29.54;44.65
53900;BME280;40509;32.858;-116.858;2023-07-31T00:22:17;97633.81;;;29.55;44.81
53900;BME280;40509;32.858;-116.858;2023-07-31T00:24:44;97631.94;;;29.55;44.77
53900;BME280;40509;32.858;-116.858;2023-07-31T00:27:10;97627.66;;;29.54;44.61
53900;BME280;40509;32.858;-116.858;2023-07-31T00:29:37;97628.25;;;29.56;44.64
53900;BME280;40509;32.858;-116.858;2023-07-31T00:32:04;97630.72;;;29.58;44.81
53900;BME280;40509;32.858;-116.858;2023-07-31T00:34:31;97628.06;;;29.58;44.69
53900;BME280;40509;32.858;-116.858;2023-07-31T00:36:57;97627.84;;;29.59;44.69
53900;BME280;40509;32.858;-116.858;2023-07-31T00:39:24;97630.72;;;29.58;44.87
53900;BME280;40509;32.858;-116.858;2023-07-31T00:41:51;97624.97;;;29.61;44.64
53900;BME280;40509;32.858;-116.858;2023-07-31T00:44:18;97618.63;;;29.62;44.75
53900;BME280;40509;32.858;-116.858;2023-07-31T00:46:45;97611.25;;;29.64;44.67
53900;BME280;40509;32.858;-116.858;2023-07-31T00:49:12;97613.91;;;29.64;44.68
53900;BME280;40509;32.858;-116.858;2023-07-31T00:51:39;97610.25;;;29.58;44.94
53900;BME280;40509;32.858;-116.858;2023-07-31T00:54:06;97614.31;;;29.61;44.79
53900;BME280;40509;32.858;-116.858;2023-07-31T00:56:33;97617.81;;;29.62;44.90
53900;BME280;40509;32.858;-116.858;2023-07-31T00:59:00;97610.66;;;29.62;44.93
53900;BME280;40509;32.858;-116.858;2023-07-31T01:01:27;97624.56;;;29.64;44.92
53900;BME280;40509;32.858;-116.858;2023-07-31T01:03:54;97614.72;;;29.65;44.82
53900;BME280;40509;32.858;-116.858;2023-07-31T01:09:16;97618.19;;;29.65;44.92
53900;BME280;40509;32.858;-116.858;2023-07-31T01:11:48;97613.91;;;29.64;45.10
53900;BME280;40509;32.858;-116.858;2023-07-31T01:14:18;97617.59;;;29.63;45.09
53900;BME280;40509;32.858;-116.858;2023-07-31T01:16:44;97628.63;;;29.67;45.01
53900;BME280;40509;32.858;-116.858;2023-07-31T01:19:11;97628.63;;;29.67;45.08
53900;BME280;40509;32.858;-116.858;2023-07-31T01:21:48;97628.63;;;29.67;45.00
53900;BME280;40509;32.858;-116.858;2023-07-31T01:27:15;97621.88;;;29.71;45.06
53900;BME280;40509;32.858;-116.858;2023-07-31T01:32:11;97628.81;;;29.72;45.04
53900;BME280;40509;32.858;-116.858;2023-07-31T01:34:38;97629.41;;;29.74;45.05
53900;BME280;40509;32.858;-116.858;2023-07-31T01:37:06;97624.53;;;29.71;44.99
53900;BME280;40509;32.858;-116.858;2023-07-31T01:39:33;97627.59;;;29.68;45.00
53900;BME280;40509;32.858;-116.858;2023-07-31T01:42:00;97630.25;;;29.68;45.20
53900;BME280;40509;32.858;-116.858;2023-07-31T01:44:28;97640.50;;;29.71;45.11
53900;BME280;40509;32.858;-116.858;2023-07-31T01:46:54;97644.19;;;29.70;45.08
53900;BME280;40509;32.858;-116.858;2023-07-31T01:49:21;97646.63;;;29.71;45.18
53900;BME280;40509;32.858;-116.858;2023-07-31T01:51:48;97645.81;;;29.71;45.35
53900;BME280;40509;32.858;-116.858;2023-07-31T01:54:15;97639.66;;;29.70;45.12
53900;BME280;40509;32.858;-116.858;2023-07-31T01:56:41;97649.28;;;29.71;45.26
53900;BME280;40509;32.858;-116.858;2023-07-31T01:59:08;97650.72;;;29.74;45.29
53900;BME280;40509;32.858;-116.858;2023-07-31T02:01:35;97650.31;;;29.70;45.25
53900;BME280;40509;32.858;-116.858;2023-07-31T02:04:02;97659.72;;;29.73;45.34
53900;BME280;40509;32.858;-116.858;2023-07-31T02:06:31;97665.25;;;29.71;45.19
53900;BME280;40509;32.858;-116.858;2023-07-31T02:08:58;97671.38;;;29.72;45.32
53900;BME280;40509;32.858;-116.858;2023-07-31T02:11:24;97670.56;;;29.71;45.26
53900;BME280;40509;32.858;-116.858;2023-07-31T02:13:51;97669.13;;;29.75;45.29
53900;BME280;40509;32.858;-116.858;2023-07-31T02:16:18;97674.66;;;29.74;45.47
53900;BME280;40509;32.858;-116.858;2023-07-31T02:18:45;97664.59;;;29.76;45.25
53900;BME280;40509;32.858;-116.858;2023-07-31T02:21:12;97666.88;;;29.72;45.40
53900;BME280;40509;32.858;-116.858;2023-07-31T02:23:39;97672.00;;;29.74;45.46
53900;BME280;40509;32.858;-116.858;2023-07-31T02:26:05;97679.53;;;29.77;45.29
53900;BME280;40509;32.858;-116.858;2023-07-31T02:28:32;97685.06;;;29.75;45.53
53900;BME280;40509;32.858;-116.858;2023-07-31T02:30:59;97689.16;;;29.78;45.20
53900;BME280;40509;32.858;-116.858;2023-07-31T02:33:26;97686.09;;;29.74;45.19
53900;BME280;40509;32.858;-116.858;2023-07-31T02:35:53;97692.03;;;29.76;45.41
53900;BME280;40509;32.858;-116.858;2023-07-31T02:38:22;97683.22;;;29.76;45.30
53900;BME280;40509;32.858;-116.858;2023-07-31T02:40:48;97696.72;;;29.74;45.58
53900;BME280;40509;32.858;-116.858;2023-07-31T02:43:16;97705.94;;;29.78;45.31
53900;BME280;40509;32.858;-116.858;2023-07-31T02:45:43;97704.09;;;29.79;45.51
53900;BME280;40509;32.858;-116.858;2023-07-31T02:48:11;97711.06;;;29.73;45.65
53900;BME280;40509;32.858;-116.858;2023-07-31T02:50:38;97709.81;;;29.76;45.29
53900;BME280;40509;32.858;-116.858;2023-07-31T02:53:05;97707.16;;;29.76;45.42
53900;BME280;40509;32.858;-116.858;2023-07-31T02:55:31;97724.78;;;29.77;45.58
53900;BME280;40509;32.858;-116.858;2023-07-31T02:57:58;97719.88;;;29.74;45.53
53900;BME280;40509;32.858;-116.858;2023-07-31T03:00:25;97729.28;;;29.76;45.43
53900;BME280;40509;32.858;-116.858;2023-07-31T03:02:52;97739.31;;;29.74;45.59
53900;BME280;40509;32.858;-116.858;2023-07-31T03:05:19;97746.84;;;29.77;45.41
53900;BME280;40509;32.858;-116.858;2023-07-31T03:07:46;97746.06;;;29.77;45.46
53900;BME280;40509;32.858;-116.858;2023-07-31T03:10:12;97751.38;;;29.77;45.38
53900;BME280;40509;32.858;-116.858;2023-07-31T03:12:39;97755.88;;;29.76;45.42
53900;BME280;40509;32.858;-116.858;2023-07-31T03:15:06;97761.59;;;29.80;45.62
53900;BME280;40509;32.858;-116.858;2023-07-31T03:17:34;97755.25;;;29.81;45.45
53900;BME280;40509;32.858;-116.858;2023-07-31T03:20:00;97763.44;;;29.80;45.67
53900;BME280;40509;32.858;-116.858;2023-07-31T03:22:28;97761.22;;;29.76;45.63
53900;BME280;40509;32.858;-116.858;2023-07-31T03:24:54;97771.22;;;29.74;45.61
53900;BME280;40509;32.858;-116.858;2023-07-31T03:27:21;97775.13;;;29.72;45.72
53900;BME280;40509;32.858;-116.858;2023-07-31T03:29:48;97779.22;;;29.74;45.45
53900;BME280;40509;32.858;-116.858;2023-07-31T03:32:17;97771.44;;;29.73;45.65
53900;BME280;40509;32.858;-116.858;2023-07-31T03:34:44;97777.19;;;29.76;45.70
53900;BME280;40509;32.858;-116.858;2023-07-31T03:37:11;97771.44;;;29.73;45.25
53900;BME280;40509;32.858;-116.858;2023-07-31T03:39:51;97775.53;;;29.75;45.66
53900;BME280;40509;32.858;-116.858;2023-07-31T03:42:18;97778.41;;;29.74;45.62
53900;BME280;40509;32.858;-116.858;2023-07-31T03:44:45;97785.38;;;29.75;45.58
53900;BME280;40509;32.858;-116.858;2023-07-31T03:47:12;97779.44;;;29.73;45.87
53900;BME280;40509;32.858;-116.858;2023-07-31T03:49:39;97778.22;;;29.69;45.69
53900;BME280;40509;32.858;-116.858;2023-07-31T03:52:06;97781.06;;;29.74;45.68
53900;BME280;40509;32.858;-116.858;2023-07-31T03:54:34;97782.88;;;29.73;45.73
53900;BME280;40509;32.858;-116.858;2023-07-31T03:57:01;97790.28;;;29.71;45.69
53900;BME280;40509;32.858;-116.858;2023-07-31T03:59:28;97795.59;;;29.71;45.62
53900;BME280;40509;32.858;-116.858;2023-07-31T04:01:55;97791.09;;;29.72;45.73
53900;BME280;40509;32.858;-116.858;2023-07-31T04:04:22;97808.28;;;29.69;45.74
53900;BME280;40509;32.858;-116.858;2023-07-31T04:06:49;97805.44;;;29.71;45.78
53900;BME280;40509;32.858;-116.858;2023-07-31T04:09:16;97806.25;;;29.71;45.87
53900;BME280;40509;32.858;-116.858;2023-07-31T04:11:42;97806.03;;;29.73;45.73
53900;BME280;40509;32.858;-116.858;2023-07-31T04:14:09;97810.75;;;29.71;45.78
53900;BME280;40509;32.858;-116.858;2023-07-31T04:16:36;97811.97;;;29.68;45.96
53900;BME280;40509;32.858;-116.858;2023-07-31T04:19:03;97815.03;;;29.72;45.79
53900;BME280;40509;32.858;-116.858;2023-07-31T04:21:30;97816.47;;;29.68;45.97
53900;BME280;40509;32.858;-116.858;2023-07-31T04:23:57;97816.66;;;29.73;45.82
53900;BME280;40509;32.858;-116.858;2023-07-31T04:26:24;97824.88;;;29.71;45.94
53900;BME280;40509;32.858;-116.858;2023-07-31T04:28:51;97819.13;;;29.68;45.92
53900;BME280;40509;32.858;-116.858;2023-07-31T04:31:18;97825.28;;;29.68;45.78
53900;BME280;40509;32.858;-116.858;2023-07-31T04:33:45;97823.44;;;29.69;45.95
53900;BME280;40509;32.858;-116.858;2023-07-31T04:36:11;97827.09;;;29.68;45.92
53900;BME280;40509;32.858;-116.858;2023-07-31T04:38:39;97824.25;;;29.69;45.90
53900;BME280;40509;32.858;-116.858;2023-07-31T04:41:07;97819.13;;;29.68;46.02
53900;BME280;40509;32.858;-116.858;2023-07-31T04:43:34;97820.16;;;29.67;45.82
53900;BME280;40509;32.858;-116.858;2023-07-31T04:46:00;97828.75;;;29.69;45.74
53900;BME280;40509;32.858;-116.858;2023-07-31T04:48:27;97834.06;;;29.69;45.84
53900;BME280;40509;32.858;-116.858;2023-07-31T04:50:54;97836.09;;;29.67;45.82
53900;BME280;40509;32.858;-116.858;2023-07-31T04:53:21;97838.78;;;29.67;45.91
53900;BME280;40509;32.858;-116.858;2023-07-31T04:55:47;97845.94;;;29.66;45.93
53900;BME280;40509;32.858;-116.858;2023-07-31T04:58:15;97838.59;;;29.62;45.97
53900;BME280;40509;32.858;-116.858;2023-07-31T05:00:41;97834.88;;;29.63;45.85
53900;BME280;40509;32.858;-116.858;2023-07-31T05:03:08;97831.63;;;29.67;45.86
53900;BME280;40509;32.858;-116.858;2023-07-31T05:05:37;97835.50;;;29.65;46.05
53900;BME280;40509;32.858;-116.858;2023-07-31T05:08:04;97826.72;;;29.64;46.01
53900;BME280;40509;32.858;-116.858;2023-07-31T05:10:30;97826.72;;;29.64;45.77
53900;BME280;40509;32.858;-116.858;2023-07-31T05:12:58;97827.31;;;29.59;46.10
53900;BME280;40509;32.858;-116.858;2023-07-31T05:15:24;97831.22;;;29.57;45.95
53900;BME280;40509;32.858;-116.858;2023-07-31T05:17:51;97827.13;;;29.61;46.10
53900;BME280;40509;32.858;-116.858;2023-07-31T05:20:18;97833.28;;;29.62;46.18
53900;BME280;40509;32.858;-116.858;2023-07-31T05:22:45;97840.22;;;29.63;45.85
53900;BME280;40509;32.858;-116.858;2023-07-31T05:25:12;97836.94;;;29.60;46.05
53900;BME280;40509;32.858;-116.858;2023-07-31T05:27:39;97835.72;;;29.63;46.10
53900;BME280;40509;32.858;-116.858;2023-07-31T05:30:06;97840.63;;;29.59;46.00
53900;BME280;40509;32.858;-116.858;2023-07-31T05:32:34;97839.81;;;29.59;45.99
53900;BME280;40509;32.858;-116.858;2023-07-31T05:35:01;97835.94;;;29.62;45.97
53900;BME280;40509;32.858;-116.858;2023-07-31T05:37:28;97841.84;;;29.64;46.01
53900;BME280;40509;32.858;-116.858;2023-07-31T05:39:55;97836.16;;;29.53;46.08
53900;BME280;40509;32.858;-116.858;2023-07-31T05:42:22;97838.97;;;29.58;46.01
53900;BME280;40509;32.858;-116.858;2023-07-31T05:44:49;97838.19;;;29.58;46.04
53900;BME280;40509;32.858;-116.858;2023-07-31T05:47:16;97839.63;;;29.54;46.13
53900;BME280;40509;32.858;-116.858;2023-07-31T05:49:43;97833.66;;;29.58;46.07
53900;BME280;40509;32.858;-116.858;2023-07-31T05:52:11;97840.03;;;29.51;46.17
53900;BME280;40509;32.858;-116.858;2023-07-31T05:54:38;97834.94;;;29.49;46.25
53900;BME280;40509;32.858;-116.858;2023-07-31T05:57:05;97837.59;;;29.49;46.19
53900;BME280;40509;32.858;-116.858;2023-07-31T05:59:32;97836.53;;;29.50;46.12
53900;BME280;40509;32.858;-116.858;2023-07-31T06:01:59;97831.63;;;29.47;46.30
53900;BME280;40509;32.858;-116.858;2023-07-31T06:04:26;97831.44;;;29.49;46.18
53900;BME280;40509;32.858;-116.858;2023-07-31T06:06:52;97830.63;;;29.48;46.09
53900;BME280;40509;32.858;-116.858;2023-07-31T06:09:19;97836.53;;;29.50;46.23
53900;BME280;40509;32.858;-116.858;2023-07-31T06:11:46;97834.09;;;29.49;46.16
53900;BME280;40509;32.858;-116.858;2023-07-31T06:14:13;97836.97;;;29.47;46.23
53900;BME280;40509;32.858;-116.858;2023-07-31T06:16:40;97832.84;;;29.51;46.05
53900;BME280;40509;32.858;-116.858;2023-07-31T06:19:07;97836.53;;;29.50;46.15
53900;BME280;40509;32.858;-116.858;2023-07-31T06:21:34;97831.63;;;29.47;46.14
53900;BME280;40509;32.858;-116.858;2023-07-31T06:24:04;97833.69;;;29.45;46.26
53900;BME280;40509;32.858;-116.858;2023-07-31T06:26:30;97828.97;;;29.47;46.14
53900;BME280;40509;32.858;-116.858;2023-07-31T06:28:57;97835.53;;;29.44;46.19
53900;BME280;40509;32.858;-116.858;2023-07-31T06:31:24;97830.63;;;29.48;46.06
53900;BME280;40509;32.858;-116.858;2023-07-31T06:33:51;97824.69;;;29.46;46.18
53900;BME280;40509;32.858;-116.858;2023-07-31T06:36:18;97826.94;;;29.42;46.32
53900;BME280;40509;32.858;-116.858;2023-07-31T06:38:45;97826.31;;;29.47;46.20
53900;BME280;40509;32.858;-116.858;2023-07-31T06:41:12;97825.31;;;29.48;46.29
53900;BME280;40509;32.858;-116.858;2023-07-31T06:43:39;97827.75;;;29.43;46.21
53900;BME280;40509;32.858;-116.858;2023-07-31T06:46:06;97826.94;;;29.49;46.10
53900;BME280;40509;32.858;-116.858;2023-07-31T06:48:33;97828.16;;;29.47;46.07
53900;BME280;40509;32.858;-116.858;2023-07-31T06:51:00;97824.88;;;29.38;46.33
53900;BME280;40509;32.858;-116.858;2023-07-31T06:53:28;97832.88;;;29.44;46.24
53900;BME280;40509;32.858;-116.858;2023-07-31T06:55:55;97828.97;;;29.40;46.28
53900;BME280;40509;32.858;-116.858;2023-07-31T06:58:22;97827.13;;;29.41;46.22
53900;BME280;40509;32.858;-116.858;2023-07-31T07:00:49;97829.19;;;29.39;46.10
53900;BME280;40509;32.858;-116.858;2023-07-31T07:03:19;97831.63;;;29.40;46.17
53900;BME280;40509;32.858;-116.858;2023-07-31T07:05:46;97833.88;;;29.37;46.27
53900;BME280;40509;32.858;-116.858;2023-07-31T07:08:14;97827.97;;;29.35;46.20
53900;BME280;40509;32.858;-116.858;2023-07-31T07:10:40;97827.97;;;29.35;46.24
53900;BME280;40509;32.858;-116.858;2023-07-31T07:13:07;97824.06;;;29.37;46.16
53900;BME280;40509;32.858;-116.858;2023-07-31T07:15:34;97828.38;;;29.32;46.19
53900;BME280;40509;32.858;-116.858;2023-07-31T07:18:01;97833.28;;;29.41;46.08
53900;BME280;40509;32.858;-116.858;2023-07-31T07:20:29;97827.97;;;29.35;46.12
53900;BME280;40509;32.858;-116.858;2023-07-31T07:22:56;97827.97;;;29.35;46.08
53900;BME280;40509;32.858;-116.858;2023-07-31T07:25:22;97829.81;;;29.34;46.13
53900;BME280;40509;32.858;-116.858;2023-07-31T07:27:49;97832.84;;;29.31;46.22
53900;BME280;40509;32.858;-116.858;2023-07-31T07:30:16;97836.94;;;29.34;46.26
53900;BME280;40509;32.858;-116.858;2023-07-31T07:32:44;97839.81;;;29.32;46.15
53900;BME280;40509;32.858;-116.858;2023-07-31T07:35:11;97831.44;;;29.29;46.20
53900;BME280;40509;32.858;-116.858;2023-07-31T07:37:38;97834.50;;;29.25;46.27
53900;BME280;40509;32.858;-116.858;2023-07-31T07:40:05;97842.06;;;29.29;46.34
53900;BME280;40509;32.858;-116.858;2023-07-31T07:42:32;97845.94;;;29.33;46.02
53900;BME280;40509;32.858;-116.858;2023-07-31T07:44:59;97838.13;;;29.24;46.22
53900;BME280;40509;32.858;-116.858;2023-07-31T07:47:26;97834.25;;;29.20;46.18
53900;BME280;40509;32.858;-116.858;2023-07-31T07:49:52;97836.09;;;29.20;46.21
53900;BME280;40509;32.858;-116.858;2023-07-31T07:52:19;97827.31;;;29.13;46.48
53900;BME280;40509;32.858;-116.858;2023-07-31T07:54:46;97820.75;;;29.15;46.23
53900;BME280;40509;32.858;-116.858;2023-07-31T07:57:13;97819.94;;;29.21;46.21
53900;BME280;40509;32.858;-116.858;2023-07-31T07:59:40;97821.81;;;29.21;46.18
53900;BME280;40509;32.858;-116.858;2023-07-31T08:02:07;97809.09;;;29.23;46.05
53900;BME280;40509;32.858;-116.858;2023-07-31T08:04:34;97808.91;;;29.18;46.26
53900;BME280;40509;32.858;-116.858;2023-07-31T08:07:01;97805.84;;;29.21;46.20
53900;BME280;40509;32.858;-116.858;2023-07-31T08:09:28;97803.19;;;29.14;46.33
53900;BME280;40509;32.858;-116.858;2023-07-31T08:11:55;97800.75;;;29.13;46.32
53900;BME280;40509;32.858;-116.858;2023-07-31T08:14:28;97801.75;;;29.18;46.26
53900;BME280;40509;32.858;-116.858;2023-07-31T08:16:55;97792.56;;;29.14;46.36
53900;BME280;40509;32.858;-116.858;2023-07-31T08:19:22;97789.06;;;29.14;46.42
53900;BME280;40509;32.858;-116.858;2023-07-31T08:21:49;97788.25;;;29.13;46.18
53900;BME280;40509;32.858;-116.858;2023-07-31T08:24:16;97782.94;;;29.13;46.06
53900;BME280;40509;32.858;-116.858;2023-07-31T08:26:43;97779.25;;;29.14;46.15
53900;BME280;40509;32.858;-116.858;2023-07-31T08:29:10;97773.53;;;29.10;46.20
53900;BME280;40509;32.858;-116.858;2023-07-31T08:31:39;97767.78;;;29.07;46.13
53900;BME280;40509;32.858;-116.858;2023-07-31T08:34:06;97761.47;;;29.08;46.31
53900;BME280;40509;32.858;-116.858;2023-07-31T08:36:33;97771.88;;;29.03;46.36
53900;BME280;40509;32.858;-116.858;2023-07-31T08:39:00;97765.56;;;29.10;46.07
53900;BME280;40509;32.858;-116.858;2023-07-31T08:41:27;97758.22;;;29.06;46.27
53900;BME280;40509;32.858;-116.858;2023-07-31T08:43:53;97751.84;;;29.07;46.13
53900;BME280;40509;32.858;-116.858;2023-07-31T08:46:21;97752.69;;;29.14;46.03
53900;BME280;40509;32.858;-116.858;2023-07-31T08:48:49;97753.69;;;29.06;46.06
53900;BME280;40509;32.858;-116.858;2023-07-31T08:51:17;97753.91;;;29.05;46.18
53900;BME280;40509;32.858;-116.858;2023-07-31T08:53:44;97757.38;;;29.05;46.21
53900;BME280;40509;32.858;-116.858;2023-07-31T08:56:11;97742.47;;;28.98;46.32
53900;BME280;40509;32.858;-116.858;2023-07-31T08:58:38;97741.03;;;29.08;45.95
53900;BME280;40509;32.858;-116.858;2023-07-31T09:01:05;97740.41;;;29.00;46.16
53900;BME280;40509;32.858;-116.858;2023-07-31T09:03:34;97741.03;;;29.02;46.13
53900;BME280;40509;32.858;-116.858;2023-07-31T09:06:04;97728.13;;;28.99;46.31
53900;BME280;40509;32.858;-116.858;2023-07-31T09:08:33;97731.63;;;28.99;46.13
53900;BME280;40509;32.858;-116.858;2023-07-31T09:11:00;97741.22;;;29.00;46.31
53900;BME280;40509;32.858;-116.858;2023-07-31T09:13:29;97740.81;;;28.97;46.38
53900;BME280;40509;32.858;-116.858;2023-07-31T09:15:57;97731.84;;;28.91;46.34
53900;BME280;40509;32.858;-116.858;2023-07-31T09:18:24;97733.44;;;28.92;46.36
53900;BME280;40509;32.858;-116.858;2023-07-31T09:21:06;97735.31;;;28.91;46.21
53900;BME280;40509;32.858;-116.858;2023-07-31T09:23:43;97728.13;;;28.92;46.24
53900;BME280;40509;32.858;-116.858;2023-07-31T09:26:11;97731.22;;;28.89;45.95
53900;BME280;40509;32.858;-116.858;2023-07-31T09:28:38;97732.22;;;28.88;46.25
53900;BME280;40509;32.858;-116.858;2023-07-31T09:31:04;97729.56;;;28.88;46.21
53900;BME280;40509;32.858;-116.858;2023-07-31T09:33:31;97724.47;;;28.93;46.08
53900;BME280;40509;32.858;-116.858;2023-07-31T09:35:58;97721.22;;;28.84;46.26
53900;BME280;40509;32.858;-116.858;2023-07-31T09:38:27;97719.16;;;28.80;46.28
53900;BME280;40509;32.858;-116.858;2023-07-31T09:40:54;97715.47;;;28.81;46.30
53900;BME280;40509;32.858;-116.858;2023-07-31T09:43:22;97712.00;;;28.73;46.46
53900;BME280;40509;32.858;-116.858;2023-07-31T09:45:52;97718.75;;;28.76;46.39
53900;BME280;40509;32.858;-116.858;2023-07-31T09:48:20;97715.25;;;28.75;46.39
53900;BME280;40509;32.858;-116.858;2023-07-31T09:50:48;97710.78;;;28.76;46.41
53900;BME280;40509;32.858;-116.858;2023-07-31T09:53:15;97714.88;;;28.79;46.30
53900;BME280;40509;32.858;-116.858;2023-07-31T09:55:42;97716.09;;;28.76;46.07
53900;BME280;40509;32.858;-116.858;2023-07-31T09:58:10;97713.03;;;28.79;46.29
53900;BME280;40509;32.858;-116.858;2023-07-31T10:00:37;97712.59;;;28.82;46.19
53900;BME280;40509;32.858;-116.858;2023-07-31T10:03:05;97714.44;;;28.75;46.19
53900;BME280;40509;32.858;-116.858;2023-07-31T10:05:36;97713.81;;;28.73;46.14
53900;BME280;40509;32.858;-116.858;2023-07-31T10:08:03;97706.91;;;28.72;46.15
53900;BME280;40509;32.858;-116.858;2023-07-31T10:10:31;97703.41;;;28.78;46.18
53900;BME280;40509;32.858;-116.858;2023-07-31T10:12:59;97696.47;;;28.77;45.88
53900;BME280;40509;32.858;-116.858;2023-07-31T10:15:26;97689.31;;;28.71;46.30
53900;BME280;40509;32.858;-116.858;2023-07-31T10:17:54;97686.88;;;28.76;46.29
53900;BME280;40509;32.858;-116.858;2023-07-31T10:20:21;97686.88;;;28.69;46.15
53900;BME280;40509;32.858;-116.858;2023-07-31T10:22:48;97700.75;;;28.71;46.23
53900;BME280;40509;32.858;-116.858;2023-07-31T10:25:15;97699.53;;;28.67;46.15
53900;BME280;40509;32.858;-116.858;2023-07-31T10:27:43;97701.38;;;28.67;46.01
53900;BME280;40509;32.858;-116.858;2023-07-31T10:30:12;97706.69;;;28.67;46.19
53900;BME280;40509;32.858;-116.858;2023-07-31T10:32:40;97715.06;;;28.77;46.13
53900;BME280;40509;32.858;-116.858;2023-07-31T10:35:08;97735.06;;;28.66;46.49
53900;BME280;40509;32.858;-116.858;2023-07-31T10:37:39;97748.13;;;28.61;46.32
53900;BME280;40509;32.858;-116.858;2023-07-31T10:40:18;97752.66;;;28.67;46.24
53900;BME280;40509;32.858;-116.858;2023-07-31T10:42:55;97760.00;;;28.65;46.03
53900;BME280;40509;32.858;-116.858;2023-07-31T10:48:04;97774.69;;;28.61;46.19
53900;BME280;40509;32.858;-116.858;2023-07-31T10:50:32;97768.53;;;28.60;46.01
53900;BME280;40509;32.858;-116.858;2023-07-31T10:53:00;97752.66;;;28.74;45.97
53900;BME280;40509;32.858;-116.858;2023-07-31T10:55:31;97735.84;;;28.60;45.94
53900;BME280;40509;32.858;-116.858;2023-07-31T10:58:11;97737.69;;;28.59;46.22
53900;BME280;40509;32.858;-116.858;2023-07-31T11:00:41;97736.06;;;28.58;46.29
53900;BME280;40509;32.858;-116.858;2023-07-31T11:03:10;97748.72;;;28.63;46.14
53900;BME280;40509;32.858;-116.858;2023-07-31T11:05:44;97772.63;;;28.56;46.23
53900;BME280;40509;32.858;-116.858;2023-07-31T11:08:19;97776.47;;;28.54;46.30
53900;BME280;40509;32.858;-116.858;2023-07-31T11:10:47;97759.13;;;28.58;46.34
53900;BME280;40509;32.858;-116.858;2023-07-31T11:13:15;97758.53;;;28.63;46.05
53900;BME280;40509;32.858;-116.858;2023-07-31T11:15:41;97749.31;;;28.52;46.06
53900;BME280;40509;32.858;-116.858;2023-07-31T11:18:09;97746.06;;;28.56;45.84
53900;BME280;40509;32.858;-116.858;2023-07-31T11:20:37;97763.63;;;28.57;45.96
53900;BME280;40509;32.858;-116.858;2023-07-31T11:23:08;97764.66;;;28.56;46.10
53900;BME280;40509;32.858;-116.858;2023-07-31T11:25:35;97780.34;;;28.51;45.98
53900;BME280;40509;32.858;-116.858;2023-07-31T11:28:03;97784.94;;;28.64;45.85
53900;BME280;40509;32.858;-116.858;2023-07-31T11:30:30;97791.00;;;28.58;45.73
53900;BME280;40509;32.858;-116.858;2023-07-31T11:32:57;97792.41;;;28.54;46.03
53900;BME280;40509;32.858;-116.858;2023-07-31T11:35:24;97795.91;;;28.54;46.01
53900;BME280;40509;32.858;-116.858;2023-07-31T11:37:51;97798.34;;;28.49;45.89
53900;BME280;40509;32.858;-116.858;2023-07-31T11:40:18;97804.06;;;28.46;46.42
53900;BME280;40509;32.858;-116.858;2023-07-31T11:42:46;97816.94;;;28.49;46.31
53900;BME280;40509;32.858;-116.858;2023-07-31T11:45:13;97808.53;;;28.46;46.51
53900;BME280;40509;32.858;-116.858;2023-07-31T11:47:39;97814.03;;;28.44;46.09
53900;BME280;40509;32.858;-116.858;2023-07-31T11:50:09;97807.69;;;28.38;46.16
53900;BME280;40509;32.858;-116.858;2023-07-31T11:52:37;97814.03;;;28.44;45.85
53900;BME280;40509;32.858;-116.858;2023-07-31T11:55:07;97827.72;;;28.41;46.46
53900;BME280;40509;32.858;-116.858;2023-07-31T11:57:37;97817.50;;;28.44;45.81
53900;BME280;40509;32.858;-116.858;2023-07-31T12:00:05;97807.09;;;28.43;46.06
53900;BME280;40509;32.858;-116.858;2023-07-31T12:02:33;97796.66;;;28.35;46.39
53900;BME280;40509;32.858;-116.858;2023-07-31T12:05:00;97807.06;;;28.36;46.00
53900;BME280;40509;32.858;-116.858;2023-07-31T12:07:42;97816.69;;;28.44;46.04
53900;BME280;40509;32.858;-116.858;2023-07-31T12:10:09;97815.03;;;28.36;46.31
53900;BME280;40509;32.858;-116.858;2023-07-31T12:12:36;97808.50;;;28.39;45.92
53900;BME280;40509;32.858;-116.858;2023-07-31T12:15:03;97803.19;;;28.39;46.12
53900;BME280;40509;32.858;-116.858;2023-07-31T12:17:39;97820.78;;;28.40;45.85
53900;BME280;40509;32.858;-116.858;2023-07-31T12:20:06;97823.00;;;28.36;46.21
53900;BME280;40509;32.858;-116.858;2023-07-31T12:22:33;97824.19;;;28.34;46.00
53900;BME280;40509;32.858;-116.858;2023-07-31T12:25:00;97818.91;;;28.34;46.12
53900;BME280;40509;32.858;-116.858;2023-07-31T12:27:32;97805.81;;;28.32;46.33
53900;BME280;40509;32.858;-116.858;2023-07-31T12:29:59;97807.03;;;28.30;45.82
53900;BME280;40509;32.858;-116.858;2023-07-31T12:32:26;97811.78;;;28.34;45.99
53900;BME280;40509;32.858;-116.858;2023-07-31T12:34:59;97805.00;;;28.32;45.91
53900;BME280;40509;32.858;-116.858;2023-07-31T12:37:26;97806.66;;;28.33;46.12
53900;BME280;40509;32.858;-116.858;2023-07-31T12:39:53;97802.56;;;28.30;46.29
53900;BME280;40509;32.858;-116.858;2023-07-31T12:42:20;97819.50;;;28.29;45.94